Time;durP1;ratioP1;P1;durP2;ratioP2;P2;SDS_P1;SDS_P2;PMS_P1;PMS_P2;Temp;Humidity;BMP_temperature;BMP_pressure;BME280_temperature;BME280_humidity;BME280_pressure;Samples;Min_cycle;Max_cycle;Signal;HPM_P1;HPM_P2
2022/06/05 00:01:43;;;;;;;8.30;7.15;;;19.10;34.20;;;;;;5073929;28;20383;-76
2022/06/05 00:04:37;;;;;;;11.88;7.00;;;19.00;34.70;;;;;;5065741;28;20392;-76
2022/06/05 00:07:21;;;;;;;10.60;7.00;;;19.00;34.60;;;;;;5073779;28;20400;-76
2022/06/05 00:09:57;;;;;;;8.85;6.97;;;18.90;35.00;;;;;;5074289;28;20503;-76
2022/06/05 00:12:33;;;;;;;10.68;7.15;;;18.80;35.60;;;;;;5073939;28;20982;-76
2022/06/05 00:14:58;;;;;;;7.45;6.85;;;18.80;36.20;;;;;;5072988;28;20494;-76
2022/06/05 00:17:24;;;;;;;9.40;7.00;;;18.90;35.70;;;;;;5073094;28;20486;-76
2022/06/05 00:19:52;;;;;;;7.47;6.78;;;19.00;35.40;;;;;;5073250;28;20383;-76
2022/06/05 00:22:19;;;;;;;9.18;6.85;;;18.90;35.80;;;;;;5073351;28;20384;-77
2022/06/05 00:24:46;;;;;;;7.60;6.80;;;18.90;36.00;;;;;;5074739;28;20388;-76
2022/06/05 00:27:50;;;;;;;8.90;7.20;;;18.80;36.00;;;;;;5073698;28;20403;-76
2022/06/05 00:30:21;;;;;;;7.78;7.05;;;18.80;36.60;;;;;;5053611;28;20384;-76
2022/06/05 00:32:51;;;;;;;7.72;6.85;;;18.70;37.00;;;;;;5073091;28;20380;-75
2022/06/05 00:35:21;;;;;;;13.45;7.28;;;18.50;37.90;;;;;;5073719;28;20768;-76
2022/06/05 00:38:14;;;;;;;9.55;7.97;;;18.30;38.80;;;;;;5072593;28;20399;-75
2022/06/05 00:41:17;;;;;;;9.85;7.70;;;18.50;38.30;;;;;;5057760;28;20606;-76
2022/06/05 00:43:44;;;;;;;10.13;8.18;;;18.70;37.40;;;;;;5038067;28;20384;-76
2022/06/05 00:46:10;;;;;;;12.13;8.40;;;18.60;38.00;;;;;;5054333;28;20440;-75
2022/06/05 00:48:35;;;;;;;11.20;8.30;;;18.60;37.80;;;;;;5072773;28;20407;-77
2022/06/05 00:51:01;;;;;;;9.45;8.50;;;18.30;39.30;;;;;;5060374;28;20382;-75
2022/06/05 00:53:27;;;;;;;10.65;7.80;;;18.20;40.40;;;;;;5035089;28;20398;-76
2022/06/05 00:55:53;;;;;;;13.10;8.67;;;18.20;40.60;;;;;;5053142;28;20396;-76
2022/06/05 00:58:20;;;;;;;13.55;8.90;;;18.10;41.70;;;;;;5035135;28;20409;-76
2022/06/05 01:00:52;;;;;;;11.18;9.27;;;18.10;41.70;;;;;;5060667;28;20405;-75
2022/06/05 01:03:20;;;;;;;9.50;8.52;;;18.20;41.80;;;;;;5062425;28;20757;-75
2022/06/05 01:05:46;;;;;;;9.70;8.77;;;18.20;41.20;;;;;;5077682;28;20400;-75
2022/06/05 01:08:13;;;;;;;10.13;8.98;;;18.20;41.80;;;;;;5078402;28;20392;-76
2022/06/05 01:10:55;;;;;;;10.32;9.30;;;18.30;41.80;;;;;;5072957;28;20379;-75
2022/06/05 01:13:56;;;;;;;10.18;8.77;;;18.30;41.30;;;;;;5053637;28;20415;-75
2022/06/05 01:16:45;;;;;;;10.30;9.20;;;18.00;43.10;;;;;;5063068;28;20909;-74
2022/06/05 01:19:29;;;;;;;9.60;8.70;;;17.90;44.70;;;;;;5072174;28;20420;-75
2022/06/05 01:22:14;;;;;;;12.45;8.90;;;18.10;43.10;;;;;;5072091;28;20379;-76
2022/06/05 01:24:44;;;;;;;12.65;8.85;;;18.10;43.80;;;;;;5071822;28;20430;-76
2022/06/05 01:27:17;;;;;;;11.45;8.52;;;18.00;43.40;;;;;;5071564;28;20411;-75
2022/06/05 01:29:48;;;;;;;9.63;8.63;;;18.00;43.90;;;;;;5072187;28;20384;-75
2022/06/05 01:32:20;;;;;;;9.70;8.70;;;18.00;43.80;;;;;;5054307;28;20386;-75
2022/06/05 01:34:51;;;;;;;10.00;8.67;;;18.00;43.60;;;;;;5071671;28;20470;-74
2022/06/05 01:37:23;;;;;;;12.10;8.77;;;17.90;45.00;;;;;;5072232;28;20387;-75
2022/06/05 01:40:04;;;;;;;9.95;8.95;;;17.90;44.60;;;;;;5073296;28;20424;-75
2022/06/05 01:42:35;;;;;;;10.80;9.70;;;17.70;45.90;;;;;;5075034;28;20388;-74
2022/06/05 01:45:23;;;;;;;12.38;9.05;;;17.50;47.70;;;;;;5075365;28;20403;-76
2022/06/05 01:47:53;;;;;;;9.77;8.80;;;17.30;49.10;;;;;;5071637;28;20407;-75
2022/06/05 01:50:31;;;;;;;10.10;9.13;;;17.30;50.40;;;;;;5072247;28;20376;-75
2022/06/05 01:53:06;;;;;;;9.80;8.90;;;17.40;49.80;;;;;;5071141;28;20483;-74
2022/06/05 01:55:42;;;;;;;12.93;9.05;;;17.40;49.30;;;;;;5062918;28;20474;-75
2022/06/05 01:58:11;;;;;;;9.75;8.57;;;17.60;49.10;;;;;;5051589;28;20468;-76
2022/06/05 02:00:37;;;;;;;10.45;9.35;;;17.70;48.00;;;;;;5051476;28;20790;-74
2022/06/05 02:03:18;;;;;;;10.07;9.10;;;17.70;47.30;;;;;;5053068;28;20545;-75
2022/06/05 02:05:45;;;;;;;12.07;10.20;;;17.70;47.20;;;;;;5070357;28;20399;-74
2022/06/05 02:08:21;;;;;;;10.15;9.15;;;17.70;48.10;;;;;;5065879;28;20389;-76
2022/06/05 02:11:23;;;;;;;12.80;9.30;;;17.40;49.80;;;;;;5066372;28;20400;-76
2022/06/05 02:13:55;;;;;;;10.38;9.27;;;17.40;49.80;;;;;;5035424;28;20396;-75
2022/06/05 02:16:22;;;;;;;10.73;9.63;;;17.50;49.00;;;;;;5053372;28;20371;-76
2022/06/05 02:18:47;;;;;;;12.02;9.80;;;17.50;48.60;;;;;;5053512;28;20384;-76
2022/06/05 02:21:13;;;;;;;9.70;8.70;;;17.50;48.60;;;;;;5070230;28;20418;-75
2022/06/05 02:23:40;;;;;;;9.70;8.80;;;17.30;50.20;;;;;;5062246;28;20404;-76
2022/06/05 02:26:08;;;;;;;10.82;9.63;;;17.30;50.30;;;;;;5071245;28;20558;-75
2022/06/05 02:28:35;;;;;;;10.40;9.40;;;17.60;49.40;;;;;;5071553;28;20795;-76
2022/06/05 02:31:26;;;;;;;12.73;9.30;;;17.60;47.80;;;;;;5073446;28;20395;-75
2022/06/05 02:34:08;;;;;;;12.07;9.63;;;17.60;47.80;;;;;;5073138;28;20387;-76
2022/06/05 02:36:56;;;;;;;14.90;9.63;;;17.70;47.50;;;;;;5062984;28;20510;-75
2022/06/05 02:39:46;;;;;;;11.07;9.60;;;17.70;46.90;;;;;;5073210;28;20471;-78
2022/06/05 02:42:21;;;;;;;12.10;9.70;;;17.70;46.80;;;;;;5070537;28;20837;-77
2022/06/05 02:44:47;;;;;;;12.65;9.40;;;17.60;47.10;;;;;;5075691;28;20483;-76
2022/06/05 02:47:29;;;;;;;10.63;9.40;;;17.70;46.90;;;;;;5071278;28;20403;-76
2022/06/05 02:50:04;;;;;;;10.55;9.13;;;17.50;47.90;;;;;;5071997;28;20376;-77
2022/06/05 02:52:31;;;;;;;9.70;8.70;;;17.50;48.00;;;;;;5067824;28;20387;-76
2022/06/05 02:55:06;;;;;;;10.53;9.53;;;17.30;49.70;;;;;;5071528;28;20552;-77
2022/06/05 02:57:32;;;;;;;10.90;9.80;;;17.30;49.60;;;;;;5070194;28;20392;-76
2022/06/05 02:59:58;;;;;;;13.53;10.00;;;17.40;49.90;;;;;;5073502;28;20413;-76
2022/06/05 03:05:08;;;;;;;13.13;10.50;;;17.40;50.00;;;;;;5059274;28;20593;-76
2022/06/05 03:07:34;;;;;;;14.57;9.50;;;17.40;50.80;;;;;;5071446;28;20494;-76
2022/06/05 03:10:00;;;;;;;9.93;9.02;;;17.30;51.70;;;;;;5075360;28;20517;-76
2022/06/05 03:12:26;;;;;;;10.90;9.80;;;17.30;51.00;;;;;;5076059;28;21258;-77
2022/06/05 03:14:56;;;;;;;10.70;9.60;;;17.40;50.30;;;;;;5073092;28;20539;-77
2022/06/05 03:17:22;;;;;;;10.95;9.20;;;17.50;50.20;;;;;;5060832;28;20406;-77
2022/06/05 03:19:48;;;;;;;10.18;9.05;;;17.60;50.80;;;;;;5064643;28;21637;-76
2022/06/05 03:22:13;;;;;;;10.40;8.35;;;17.70;49.80;;;;;;5075046;28;20415;-76
2022/06/05 03:24:39;;;;;;;9.30;8.40;;;18.00;47.40;;;;;;5073938;28;20919;-76
2022/06/05 03:27:06;;;;;;;9.30;8.40;;;18.30;45.50;;;;;;5070003;28;20747;-76
2022/06/05 03:29:31;;;;;;;9.23;8.32;;;18.40;44.30;;;;;;5055564;28;20385;-76
2022/06/05 03:31:57;;;;;;;9.93;8.68;;;18.50;44.10;;;;;;5055096;28;20742;-76
2022/06/05 03:34:23;;;;;;;9.30;8.40;;;18.50;43.60;;;;;;5056730;28;20881;-76
2022/06/05 03:36:49;;;;;;;10.40;8.27;;;18.40;44.10;;;;;;5074739;28;20396;-77
2022/06/05 03:39:14;;;;;;;10.90;8.43;;;18.50;43.60;;;;;;5062117;28;20403;-76
2022/06/05 03:41:40;;;;;;;11.40;9.50;;;18.60;42.50;;;;;;5047815;28;20492;-76
2022/06/05 03:44:06;;;;;;;9.50;8.17;;;18.50;42.10;;;;;;5067308;28;20474;-77
2022/06/05 03:46:35;;;;;;;9.90;8.90;;;18.50;42.40;;;;;;5074357;28;20399;-77
2022/06/05 03:49:00;;;;;;;8.85;8.00;;;18.30;42.80;;;;;;5073105;28;20388;-76
2022/06/05 03:51:26;;;;;;;10.00;9.05;;;18.30;42.70;;;;;;5074719;28;20395;-78
2022/06/05 03:53:52;;;;;;;11.60;9.10;;;18.20;42.60;;;;;;5075686;28;20400;-77
2022/06/05 03:56:20;;;;;;;10.57;8.63;;;18.20;43.10;;;;;;5076008;28;20387;-76
2022/06/05 03:58:46;;;;;;;10.50;9.13;;;18.20;43.30;;;;;;5054780;28;20811;-75
2022/06/05 04:01:14;;;;;;;9.93;8.93;;;18.10;44.30;;;;;;5073822;28;20491;-76
2022/06/05 04:03:40;;;;;;;10.75;9.10;;;18.10;44.30;;;;;;5073929;28;20380;-76
2022/06/05 04:06:07;;;;;;;10.05;9.13;;;18.10;44.40;;;;;;5074214;28;20905;-78
2022/06/05 04:08:34;;;;;;;11.77;9.00;;;18.10;45.50;;;;;;5057491;28;20396;-76
2022/06/05 04:11:08;;;;;;;12.10;9.10;;;18.10;44.70;;;;;;5067416;28;20925;-76
2022/06/05 04:13:33;;;;;;;12.93;8.70;;;18.20;45.00;;;;;;5055721;28;20395;-76
2022/06/05 04:15:59;;;;;;;10.27;8.57;;;18.10;44.80;;;;;;5063217;28;20457;-76
2022/06/05 04:18:24;;;;;;;10.48;9.38;;;18.10;45.10;;;;;;5074999;28;20987;-76
2022/06/05 04:20:50;;;;;;;10.15;9.00;;;18.20;44.70;;;;;;5076381;28;20388;-76
2022/06/05 04:23:16;;;;;;;9.90;8.90;;;18.20;45.00;;;;;;5077234;28;20384;-77
2022/06/05 04:25:42;;;;;;;10.50;9.07;;;18.30;44.70;;;;;;5081534;28;20421;-77
2022/06/05 04:28:09;;;;;;;10.23;9.20;;;18.20;45.60;;;;;;5064454;28;20389;-77
2022/06/05 04:30:39;;;;;;;11.93;8.80;;;18.40;44.80;;;;;;5039715;28;20400;-77
2022/06/05 04:33:05;;;;;;;10.90;9.50;;;18.50;43.70;;;;;;5056105;28;20385;-75
2022/06/05 04:35:32;;;;;;;10.93;9.27;;;18.60;43.40;;;;;;5067407;28;20763;-76
2022/06/05 04:37:57;;;;;;;9.45;8.55;;;18.50;43.70;;;;;;5061210;28;20395;-76
2022/06/05 04:40:23;;;;;;;10.07;8.93;;;18.60;43.10;;;;;;5073687;28;20379;-76
2022/06/05 04:42:49;;;;;;;10.80;9.43;;;18.60;43.30;;;;;;5073329;28;20730;-77
2022/06/05 04:45:14;;;;;;;11.20;8.90;;;18.60;43.20;;;;;;5073149;28;20460;-76
2022/06/05 04:47:43;;;;;;;10.50;9.40;;;18.50;43.30;;;;;;5063876;28;20832;-76
2022/06/05 04:50:09;;;;;;;10.43;8.80;;;18.60;43.30;;;;;;5044744;28;20753;-76
2022/06/05 04:52:35;;;;;;;11.10;9.18;;;18.60;43.30;;;;;;5073263;28;20447;-76
2022/06/05 04:55:01;;;;;;;10.05;8.73;;;18.70;42.80;;;;;;5072563;28;20450;-77
2022/06/05 04:57:26;;;;;;;11.10;9.27;;;18.70;42.50;;;;;;5073444;28;20434;-77
2022/06/05 04:59:52;;;;;;;9.80;8.85;;;18.80;42.00;;;;;;5073111;28;20452;-76
2022/06/05 05:02:18;;;;;;;10.90;8.90;;;18.90;41.30;;;;;;5073422;28;20391;-76
2022/06/05 05:04:47;;;;;;;10.40;9.30;;;19.00;41.20;;;;;;5073007;28;20399;-76
2022/06/05 05:07:16;;;;;;;9.65;8.75;;;18.90;42.40;;;;;;5071241;28;20408;-76
2022/06/05 05:09:42;;;;;;;10.50;9.57;;;18.80;43.30;;;;;;5076451;28;20378;-76
2022/06/05 05:12:09;;;;;;;10.10;9.10;;;18.70;44.30;;;;;;5058603;28;20380;-76
2022/06/05 05:14:36;;;;;;;9.88;8.88;;;18.70;45.00;;;;;;5077823;28;20380;-77
2022/06/05 05:17:01;;;;;;;9.75;8.75;;;18.80;44.70;;;;;;5055429;28;20912;-76
2022/06/05 05:19:27;;;;;;;10.32;9.38;;;18.80;44.60;;;;;;5074508;28;20394;-77
2022/06/05 05:21:52;;;;;;;11.70;9.20;;;18.90;44.00;;;;;;5076321;28;20934;-76
2022/06/05 05:24:18;;;;;;;10.53;8.70;;;18.90;44.00;;;;;;5074584;28;20501;-76
2022/06/05 05:26:45;;;;;;;13.25;8.82;;;18.90;43.50;;;;;;5060684;28;20422;-76
2022/06/05 05:29:10;;;;;;;11.90;9.90;;;18.90;43.70;;;;;;5052739;28;20746;-76
2022/06/05 05:31:39;;;;;;;9.70;8.70;;;19.00;43.10;;;;;;5052641;28;20380;-77
2022/06/05 05:34:07;;;;;;;9.55;8.65;;;19.10;43.50;;;;;;5056011;28;20872;-76
2022/06/05 05:36:33;;;;;;;10.65;9.02;;;19.30;42.50;;;;;;5063632;28;20407;-76
2022/06/05 05:44:27;;;;;;;13.68;10.27;;;20.10;38.60;;;;;;5075817;28;20382;-78
2022/06/05 05:46:54;;;;;;;10.60;9.50;;;20.10;39.30;;;;;;5070914;28;20902;-77
2022/06/05 05:49:19;;;;;;;11.63;10.20;;;20.10;39.70;;;;;;5070915;28;20407;-77
2022/06/05 05:51:45;;;;;;;11.43;9.40;;;20.20;39.50;;;;;;5057886;28;20416;-78
2022/06/05 05:54:11;;;;;;;10.65;9.55;;;20.30;39.00;;;;;;5058687;28;20377;-77
2022/06/05 05:56:38;;;;;;;10.00;9.02;;;20.30;39.80;;;;;;5073684;28;20434;-77
2022/06/05 05:59:04;;;;;;;12.27;9.47;;;20.50;39.70;;;;;;5088869;28;20455;-77
2022/06/05 06:01:30;;;;;;;10.10;8.93;;;20.70;38.70;;;;;;5062410;28;20388;-78
2022/06/05 06:03:55;;;;;;;11.07;9.75;;;20.80;38.70;;;;;;5081875;28;20474;-78
2022/06/05 06:06:28;;;;;;;11.40;9.33;;;20.80;39.30;;;;;;5078502;28;20438;-78
2022/06/05 06:08:54;;;;;;;10.15;8.93;;;21.10;36.70;;;;;;5074867;28;20494;-78
2022/06/05 06:11:20;;;;;;;9.15;8.25;;;21.10;35.30;;;;;;5074145;28;20410;-77
2022/06/05 06:13:45;;;;;;;10.27;8.83;;;21.10;35.30;;;;;;5066770;28;20391;-77
2022/06/05 06:16:11;;;;;;;10.70;9.07;;;21.00;36.10;;;;;;5060453;28;20403;-76
2022/06/05 06:18:36;;;;;;;9.60;8.60;;;20.90;35.20;;;;;;5079198;28;20483;-77
2022/06/05 06:21:02;;;;;;;9.60;8.70;;;20.90;35.20;;;;;;5079532;28;20414;-77
2022/06/05 06:23:28;;;;;;;9.43;8.55;;;20.90;34.60;;;;;;5061060;28;20415;-77
2022/06/05 06:25:53;;;;;;;8.80;8.00;;;21.20;33.90;;;;;;5077970;28;20908;-77
2022/06/05 06:28:19;;;;;;;9.47;8.23;;;21.20;34.00;;;;;;5076749;28;20420;-79
2022/06/05 06:30:45;;;;;;;9.00;8.20;;;21.40;33.10;;;;;;5075899;28;20392;-77
2022/06/05 06:33:11;;;;;;;10.52;9.43;;;21.40;33.00;;;;;;5074507;28;20733;-77
2022/06/05 06:35:37;;;;;;;9.02;8.13;;;21.50;32.80;;;;;;5077609;28;20407;-78
2022/06/05 06:38:04;;;;;;;10.27;9.37;;;21.50;32.50;;;;;;5081751;28;20526;-78
2022/06/05 06:40:30;;;;;;;9.50;8.60;;;21.80;30.90;;;;;;5075439;28;20403;-78
2022/06/05 06:42:56;;;;;;;22.25;16.05;;;21.90;30.80;;;;;;5091360;28;20966;-77
2022/06/05 06:45:22;;;;;;;9.48;8.38;;;21.80;30.80;;;;;;5090876;28;20887;-77
2022/06/05 06:47:48;;;;;;;10.82;9.73;;;22.10;30.10;;;;;;5074493;28;20415;-77
2022/06/05 06:50:14;;;;;;;9.00;8.20;;;22.30;29.60;;;;;;5072877;28;20415;-78
2022/06/05 06:52:40;;;;;;;9.48;8.57;;;22.10;30.20;;;;;;5071979;28;20427;-77
2022/06/05 06:55:07;;;;;;;9.40;8.30;;;22.10;30.80;;;;;;5049196;28;20396;-78
2022/06/05 06:57:32;;;;;;;9.55;8.75;;;22.40;29.30;;;;;;5071123;28;20741;-78
2022/06/05 06:59:58;;;;;;;9.20;7.70;;;22.40;29.90;;;;;;5065625;28;20411;-78
2022/06/05 07:02:24;;;;;;;9.03;8.00;;;22.50;29.50;;;;;;5055919;28;20826;-79
2022/06/05 07:04:49;;;;;;;9.25;8.45;;;22.60;28.50;;;;;;5049716;28;20410;-76
2022/06/05 07:07:15;;;;;;;8.90;8.00;;;22.80;27.90;;;;;;5043446;28;20774;-77
2022/06/05 07:09:40;;;;;;;9.20;8.40;;;22.80;28.10;;;;;;5066876;28;20788;-77
2022/06/05 07:12:06;;;;;;;10.03;9.03;;;22.90;27.40;;;;;;5067004;28;20407;-76
2022/06/05 07:14:32;;;;;;;9.70;8.70;;;22.60;28.70;;;;;;5075433;28;20509;-75
2022/06/05 07:16:58;;;;;;;9.90;8.90;;;22.80;28.70;;;;;;5066573;28;20416;-76
2022/06/05 07:19:23;;;;;;;9.27;8.38;;;22.90;28.10;;;;;;5067984;28;20926;-76
2022/06/05 07:21:49;;;;;;;8.73;8.03;;;23.00;27.50;;;;;;5049457;28;20414;-76
2022/06/05 07:24:16;;;;;;;8.25;7.45;;;23.00;27.40;;;;;;5066731;28;20486;-77
2022/06/05 07:26:41;;;;;;;8.82;8.02;;;23.00;27.50;;;;;;5061710;28;20771;-77
2022/06/05 07:29:07;;;;;;;9.20;8.20;;;23.00;27.90;;;;;;5066446;28;20495;-75
2022/06/05 07:31:33;;;;;;;11.43;8.15;;;23.20;28.10;;;;;;5069023;28;20880;-78
2022/06/05 07:34:00;;;;;;;8.53;7.70;;;23.50;27.40;;;;;;5067609;28;20941;-77
2022/06/05 07:36:27;;;;;;;9.13;8.33;;;23.90;25.90;;;;;;5069942;28;20426;-77
2022/06/05 07:38:54;;;;;;;8.57;7.77;;;24.00;25.50;;;;;;5069692;28;20410;-77
2022/06/05 07:41:23;;;;;;;13.40;7.40;;;24.40;23.50;;;;;;5068493;28;20463;-77
2022/06/05 07:43:50;;;;;;;8.23;7.53;;;24.60;23.10;;;;;;5069680;28;20377;-77
2022/06/05 07:46:16;;;;;;;8.15;7.35;;;24.70;22.90;;;;;;5074954;28;20516;-76
2022/06/05 07:48:42;;;;;;;7.70;7.10;;;24.90;21.90;;;;;;5077424;28;20434;-76
2022/06/05 07:54:27;;;;;;;6.97;6.38;;;24.90;22.50;;;;;;5070036;28;20394;-79
2022/06/05 07:57:01;;;;;;;7.93;6.85;;;25.20;21.70;;;;;;5068002;28;20915;-76
2022/06/05 07:59:28;;;;;;;7.50;6.90;;;25.20;21.50;;;;;;5066288;28;20414;-77
2022/06/05 08:01:56;;;;;;;7.55;6.85;;;24.90;21.50;;;;;;5068522;28;20407;-76
2022/06/05 08:04:21;;;;;;;7.88;7.10;;;24.90;21.30;;;;;;5051591;28;20651;-78
2022/06/05 08:06:48;;;;;;;7.47;6.87;;;24.80;21.40;;;;;;5072429;28;20411;-78
2022/06/05 08:09:14;;;;;;;7.55;6.78;;;24.90;21.10;;;;;;5072077;28;20933;-78
2022/06/05 08:11:42;;;;;;;7.80;7.10;;;24.90;21.30;;;;;;5055670;28;20400;-79
2022/06/05 08:14:09;;;;;;;7.53;6.93;;;25.00;21.00;;;;;;5073337;28;20435;-78
2022/06/05 08:16:35;;;;;;;7.65;6.95;;;25.10;21.10;;;;;;5071579;28;20391;-78
2022/06/05 08:19:00;;;;;;;8.30;7.50;;;25.20;20.60;;;;;;5071790;28;20474;-78
2022/06/05 08:21:26;;;;;;;7.90;7.20;;;25.30;20.00;;;;;;5051792;28;20416;-78
2022/06/05 08:23:52;;;;;;;10.30;7.13;;;25.20;19.90;;;;;;5053824;28;20412;-78
2022/06/05 08:26:18;;;;;;;7.30;6.70;;;25.40;19.50;;;;;;5071541;28;20412;-78
2022/06/05 08:28:44;;;;;;;8.13;7.40;;;25.60;19.20;;;;;;5073107;28;20488;-78
2022/06/05 08:31:09;;;;;;;7.90;7.10;;;25.70;19.00;;;;;;5056240;28;20490;-77
2022/06/05 08:33:35;;;;;;;9.25;6.95;;;25.80;18.90;;;;;;5053666;28;20463;-77
2022/06/05 08:36:01;;;;;;;7.60;6.97;;;26.00;18.50;;;;;;5066436;28;20400;-76
2022/06/05 08:41:46;;;;;;;8.30;7.20;;;25.90;18.50;;;;;;5075097;28;20398;-75
2022/06/05 08:44:15;;;;;;;7.95;7.15;;;25.90;18.30;;;;;;5034531;28;20420;-74
2022/06/05 08:47:01;;;;;;;8.60;7.80;;;25.90;17.90;;;;;;5067880;28;20422;-74
2022/06/05 08:49:45;;;;;;;7.90;7.10;;;25.90;17.90;;;;;;5052106;28;20442;-77
2022/06/05 08:52:27;;;;;;;8.60;7.43;;;25.90;17.80;;;;;;5070444;28;20399;-78
2022/06/05 08:54:56;;;;;;;8.50;7.70;;;25.70;18.70;;;;;;5069905;28;20415;-75
2022/06/05 08:57:48;;;;;;;8.63;7.55;;;25.40;19.40;;;;;;5072697;28;20403;-77
2022/06/05 09:00:32;;;;;;;9.00;8.10;;;25.40;19.90;;;;;;5080944;28;20422;-77
2022/06/05 09:03:04;;;;;;;10.82;7.60;;;25.10;20.80;;;;;;5081859;28;20949;-77
2022/06/05 09:05:37;;;;;;;10.30;7.70;;;24.90;20.90;;;;;;5061329;28;20404;-77
2022/06/05 09:08:11;;;;;;;8.73;7.60;;;24.70;21.70;;;;;;5082606;28;20404;-77
2022/06/05 09:10:46;;;;;;;8.55;7.65;;;24.50;22.80;;;;;;5082529;28;20395;-77
2022/06/05 09:13:21;;;;;;;9.02;8.23;;;24.30;23.20;;;;;;5086963;28;20392;-78
2022/06/05 09:15:56;;;;;;;8.82;8.02;;;24.20;23.30;;;;;;5061972;28;20403;-75
2022/06/05 09:18:23;;;;;;;10.65;8.15;;;24.20;24.10;;;;;;5065968;28;20475;-78
2022/06/05 09:20:55;;;;;;;9.85;8.95;;;24.00;24.80;;;;;;5076957;28;20404;-76
2022/06/05 09:23:44;;;;;;;9.48;8.57;;;23.80;25.20;;;;;;5060129;28;20403;-76
2022/06/05 09:26:10;;;;;;;9.07;8.17;;;23.70;25.50;;;;;;5075139;28;20422;-76
2022/06/05 09:28:53;;;;;;;11.55;8.60;;;23.40;26.20;;;;;;5066501;28;20479;-75
2022/06/05 09:31:50;;;;;;;9.57;8.57;;;23.10;27.40;;;;;;5071167;28;20474;-77
2022/06/05 09:34:27;;;;;;;9.68;8.68;;;23.00;28.30;;;;;;5083231;28;20405;-76
2022/06/05 09:37:04;;;;;;;9.88;8.88;;;23.00;28.70;;;;;;5086442;28;20503;-77
2022/06/05 09:39:35;;;;;;;10.20;9.13;;;22.80;30.90;;;;;;5090359;28;20467;-75
2022/06/05 09:42:29;;;;;;;15.35;10.80;;;22.60;32.90;;;;;;5083086;28;20411;-77
2022/06/05 09:45:00;;;;;;;11.80;10.65;;;22.40;38.50;;;;;;5085495;28;20449;-75
2022/06/05 09:47:39;;;;;;;16.63;12.52;;;22.00;45.00;;;;;;5087990;28;20423;-76
2022/06/05 09:50:14;;;;;;;19.50;13.88;;;21.60;50.50;;;;;;5083934;28;20401;-77
2022/06/05 09:52:40;;;;;;;17.73;13.75;;;21.20;57.10;;;;;;5086937;28;20471;-76
2022/06/05 09:55:11;;;;;;;15.68;14.07;;;21.00;62.70;;;;;;5088278;28;20485;-77
2022/06/05 10:00:44;;;;;;;17.33;14.68;;;20.80;65.30;;;;;;5082368;28;20826;-76
2022/06/05 10:03:16;;;;;;;16.45;14.75;;;20.70;67.80;;;;;;5066656;28;20927;-76
2022/06/05 10:05:45;;;;;;;18.30;15.05;;;20.60;68.80;;;;;;5081773;28;20449;-76
2022/06/05 10:08:22;;;;;;;17.00;15.20;;;20.50;71.30;;;;;;5084628;28;20403;-75
2022/06/05 10:10:51;;;;;;;18.25;16.40;;;20.50;73.40;;;;;;5090105;28;20399;-76
2022/06/05 10:13:22;;;;;;;16.95;15.15;;;20.50;74.60;;;;;;5089369;28;20421;-77
2022/06/05 10:16:12;;;;;;;17.05;15.45;;;20.60;72.10;;;;;;5091547;28;20380;-76
2022/06/05 10:18:47;;;;;;;17.50;15.70;;;20.90;71.70;;;;;;5089674;28;20396;-75
2022/06/05 10:21:14;;;;;;;16.45;14.75;;;21.10;70.70;;;;;;5089572;28;20401;-76
2022/06/05 10:23:43;;;;;;;16.60;14.80;;;21.20;65.40;;;;;;5083350;28;20417;-76
2022/06/05 10:26:17;;;;;;;21.05;16.25;;;21.40;64.60;;;;;;5085357;28;20421;-78
2022/06/05 10:28:44;;;;;;;18.17;15.80;;;21.50;65.60;;;;;;5067233;28;20468;-78
2022/06/05 10:31:21;;;;;;;18.08;15.95;;;21.60;65.30;;;;;;5058164;28;20410;-77
2022/06/05 10:34:14;;;;;;;18.17;16.35;;;21.70;66.90;;;;;;5074141;28;20412;-78
2022/06/05 10:37:15;;;;;;;17.60;15.35;;;21.70;67.20;;;;;;5051865;28;20506;-76
2022/06/05 10:39:53;;;;;;;18.52;16.05;;;21.90;65.60;;;;;;5039874;28;20414;-78
2022/06/05 10:42:54;;;;;;;17.48;15.15;;;22.20;61.90;;;;;;5056627;28;20777;-78
2022/06/05 10:45:49;;;;;;;17.58;15.10;;;22.40;60.00;;;;;;5080531;28;20442;-78
2022/06/05 10:48:42;;;;;;;16.90;15.20;;;22.70;57.40;;;;;;5078410;28;20418;-78
2022/06/05 10:51:39;;;;;;;15.20;13.60;;;22.70;58.10;;;;;;5055259;28;20401;-78
2022/06/05 10:54:14;;;;;;;14.60;13.20;;;22.80;54.00;;;;;;5065416;28;20901;-77
2022/06/05 10:57:02;;;;;;;15.00;13.48;;;22.70;52.40;;;;;;5070539;28;20502;-77
2022/06/05 10:59:47;;;;;;;15.13;13.55;;;22.50;54.70;;;;;;5073674;28;20393;-77
2022/06/05 11:02:34;;;;;;;16.87;13.47;;;22.50;56.80;;;;;;5069834;28;20399;-77
2022/06/05 11:05:07;;;;;;;14.52;13.02;;;22.40;55.60;;;;;;5074425;28;20400;-77
2022/06/05 11:08:10;;;;;;;14.10;12.80;;;22.30;56.50;;;;;;5069472;28;20411;-76
2022/06/05 11:14:20;;;;;;;15.35;13.95;;;21.70;59.30;;;;;;5070234;28;20752;-76
2022/06/05 11:16:55;;;;;;;17.33;14.55;;;21.50;62.70;;;;;;5066245;28;20468;-79
2022/06/05 11:19:54;;;;;;;17.30;14.70;;;21.30;65.80;;;;;;5055134;28;20417;-77
2022/06/05 11:22:21;;;;;;;16.33;14.68;;;21.30;65.90;;;;;;5070140;28;20416;-78
2022/06/05 11:24:55;;;;;;;16.80;15.10;;;21.20;69.50;;;;;;5061757;28;20391;-78
2022/06/05 11:27:36;;;;;;;15.77;14.07;;;21.20;69.60;;;;;;5072359;28;20409;-77
2022/06/05 11:30:25;;;;;;;16.20;14.60;;;21.20;65.90;;;;;;5071385;28;20400;-78
2022/06/05 11:33:12;;;;;;;14.60;13.10;;;21.20;68.80;;;;;;5052208;28;20769;-78
2022/06/05 11:36:15;;;;;;;16.20;14.25;;;21.20;65.40;;;;;;5071999;28;21765;-79
2022/06/05 11:39:02;;;;;;;14.93;13.40;;;21.20;68.10;;;;;;5075470;28;20715;-78
2022/06/05 11:41:55;;;;;;;15.10;13.20;;;21.20;67.70;;;;;;5073511;28;20401;-76
2022/06/05 11:44:45;;;;;;;15.63;14.02;;;21.40;64.60;;;;;;5073970;28;20395;-77
2022/06/05 11:47:27;;;;;;;17.15;14.30;;;21.40;66.10;;;;;;5071977;28;20411;-76
2022/06/05 11:50:16;;;;;;;16.25;14.60;;;21.50;67.50;;;;;;5074625;28;20449;-78
2022/06/05 11:52:52;;;;;;;15.38;13.50;;;21.70;67.00;;;;;;5071417;28;20494;-77
2022/06/05 11:55:53;;;;;;;15.23;13.57;;;21.90;64.80;;;;;;5066286;28;20878;-78
2022/06/05 11:58:55;;;;;;;14.25;12.75;;;22.30;63.10;;;;;;5035323;28;20427;-82
2022/06/05 12:01:26;;;;;;;13.95;12.45;;;22.90;58.90;;;;;;5053507;28;20395;-78
2022/06/05 12:03:58;;;;;;;13.07;11.70;;;23.50;50.80;;;;;;5056425;28;20403;-78
2022/06/05 12:06:33;;;;;;;11.75;10.55;;;24.10;45.00;;;;;;5061692;28;20396;-77
2022/06/05 12:09:01;;;;;;;11.73;10.57;;;24.60;39.10;;;;;;5076111;28;20388;-79
2022/06/05 12:11:52;;;;;;;10.90;10.00;;;25.20;39.10;;;;;;5057941;28;20491;-78
2022/06/05 12:14:31;;;;;;;10.60;9.70;;;25.90;35.80;;;;;;5061342;28;20454;-79
2022/06/05 12:17:23;;;;;;;10.80;8.85;;;26.10;35.40;;;;;;5075216;28;20985;-78
2022/06/05 12:19:51;;;;;;;8.60;7.90;;;26.20;35.20;;;;;;5077252;28;20392;-79
2022/06/05 12:23:11;;;;;;;10.18;9.20;;;26.10;31.80;;;;;;5066767;28;20435;-78
2022/06/05 12:25:49;;;;;;;10.32;9.15;;;26.20;31.10;;;;;;4963980;28;20462;-78
2022/06/05 12:28:26;;;;;;;10.02;9.00;;;26.40;32.00;;;;;;4995421;28;20501;-77
2022/06/05 12:31:13;;;;;;;9.40;8.50;;;26.60;30.70;;;;;;5042300;28;20905;-78
2022/06/05 12:33:57;;;;;;;9.20;8.30;;;26.80;28.40;;;;;;5078320;28;20388;-78
2022/06/05 12:36:52;;;;;;;10.00;9.20;;;27.10;27.70;;;;;;5082108;28;20388;-78
2022/06/05 12:39:23;;;;;;;9.85;8.95;;;27.00;27.60;;;;;;5062476;28;20407;-77
2022/06/05 12:41:57;;;;;;;9.55;8.52;;;26.70;27.50;;;;;;5067044;28;20415;-79
2022/06/05 12:44:26;;;;;;;10.20;9.20;;;26.30;28.50;;;;;;5080358;28;20391;-77
2022/06/05 12:46:53;;;;;;;9.70;8.88;;;25.90;29.70;;;;;;5080666;28;20403;-78
2022/06/05 12:49:39;;;;;;;9.00;8.30;;;26.10;29.90;;;;;;5083029;28;20748;-77
2022/06/05 12:52:16;;;;;;;9.30;8.50;;;26.70;27.40;;;;;;5083769;28;20868;-78
2022/06/05 12:55:14;;;;;;;9.55;8.55;;;27.20;26.80;;;;;;5084999;28;20388;-78
2022/06/05 12:57:46;;;;;;;9.18;8.48;;;27.40;26.10;;;;;;5086242;28;20399;-79
2022/06/05 13:00:18;;;;;;;7.93;7.32;;;27.20;26.60;;;;;;5084625;28;20403;-78
2022/06/05 13:03:18;;;;;;;8.00;7.30;;;27.10;25.30;;;;;;5067666;28;20476;-77
2022/06/05 13:06:06;;;;;;;8.80;7.70;;;27.40;22.70;;;;;;5077458;28;20422;-78
2022/06/05 13:08:37;;;;;;;8.40;7.60;;;27.20;22.90;;;;;;5071879;28;20403;-77
2022/06/05 13:11:40;;;;;;;8.07;7.20;;;27.10;23.40;;;;;;5064320;28;20874;-77
2022/06/05 13:14:25;;;;;;;7.67;6.87;;;27.10;24.00;;;;;;5066269;28;20879;-78
2022/06/05 13:16:57;;;;;;;8.20;6.90;;;27.00;23.00;;;;;;5081602;28;20396;-78
2022/06/05 13:19:50;;;;;;;7.68;7.07;;;26.90;23.70;;;;;;5081811;28;20476;-76
2022/06/05 13:22:32;;;;;;;8.50;7.70;;;26.70;24.30;;;;;;5075324;28;20407;-78
2022/06/05 13:25:12;;;;;;;8.35;7.60;;;26.80;24.00;;;;;;5068505;28;20399;-77
2022/06/05 13:28:07;;;;;;;8.80;8.00;;;26.50;25.30;;;;;;5075550;28;20407;-78
2022/06/05 13:30:48;;;;;;;8.60;7.80;;;25.90;25.50;;;;;;5070376;28;20482;-77